createdAt,value
2019-02-21T00:01:00.927Z,8.10
2019-02-21T00:03:31.580Z,7.72
2019-02-21T00:06:03.008Z,7.87
2019-02-21T00:08:33.381Z,9.53
2019-02-21T00:11:04.437Z,8.28
2019-02-21T00:13:34.811Z,8.18
2019-02-21T00:16:05.169Z,8.65
2019-02-21T00:18:35.545Z,9.43
2019-02-21T00:21:05.975Z,9.20
2019-02-21T00:23:36.359Z,8.13
2019-02-21T00:26:06.711Z,8.68
2019-02-21T00:28:37.083Z,9.08
2019-02-21T00:31:07.440Z,8.95
2019-02-21T00:33:37.830Z,9.08
2019-02-21T00:36:08.269Z,8.55
2019-02-21T00:38:38.652Z,9.15
2019-02-21T00:41:09.009Z,7.97
2019-02-21T00:43:39.394Z,9.28
2019-02-21T00:46:09.749Z,9.03
2019-02-21T00:48:40.125Z,8.28
2019-02-21T00:51:10.490Z,8.35
2019-02-21T00:53:40.874Z,8.78
2019-02-21T00:56:11.231Z,8.18
2019-02-21T00:58:41.616Z,8.38
2019-02-21T01:01:11.975Z,9.00
2019-02-21T01:03:42.351Z,8.65
2019-02-21T01:06:12.715Z,8.18
2019-02-21T01:08:43.067Z,7.95
2019-02-21T01:11:13.448Z,8.25
2019-02-21T01:13:43.832Z,8.30
2019-02-21T01:16:14.194Z,7.80
2019-02-21T01:18:44.573Z,7.87
2019-02-21T01:21:14.921Z,8.10
2019-02-21T01:23:45.320Z,7.87
2019-02-21T01:26:15.681Z,7.75
2019-02-21T01:28:46.069Z,7.83
2019-02-21T01:31:16.418Z,7.65
2019-02-21T01:33:46.796Z,8.63
2019-02-21T01:36:17.153Z,7.58
2019-02-21T01:38:47.501Z,7.78
2019-02-21T01:41:17.873Z,8.08
2019-02-21T01:43:48.239Z,7.55
2019-02-21T01:46:18.611Z,7.95
2019-02-21T01:48:48.967Z,7.80
2019-02-21T01:51:19.346Z,8.88
2019-02-21T01:53:49.709Z,9.00
2019-02-21T01:56:20.091Z,8.48
2019-02-21T01:58:50.443Z,8.28
2019-02-21T02:01:20.826Z,8.53
2019-02-21T02:03:51.357Z,8.70
2019-02-21T02:06:21.876Z,9.95
2019-02-21T02:08:52.233Z,9.98
2019-02-21T02:11:22.644Z,10.80
2019-02-21T02:13:53.009Z,10.58
2019-02-21T02:16:23.388Z,11.28
2019-02-21T02:18:53.750Z,10.68
2019-02-21T02:21:24.136Z,11.03
2019-02-21T02:23:54.498Z,11.30
2019-02-21T02:26:24.866Z,11.80
2019-02-21T02:28:56.209Z,11.78
2019-02-21T02:31:26.666Z,12.85
2019-02-21T02:33:57.030Z,12.50
2019-02-21T02:36:27.414Z,14.18
2019-02-21T02:38:57.777Z,13.35
2019-02-21T02:41:28.165Z,14.00
2019-02-21T02:43:58.531Z,14.68
2019-02-21T02:46:28.906Z,13.70
2019-02-21T02:48:59.260Z,14.28
2019-02-21T02:51:29.646Z,14.60
2019-02-21T02:54:00.010Z,13.48
2019-02-21T02:56:42.729Z,15.05
2019-02-21T02:59:13.086Z,15.13
2019-02-21T03:01:43.475Z,15.72
2019-02-21T03:04:13.870Z,15.15
2019-02-21T03:06:44.241Z,15.45
2019-02-21T03:09:14.609Z,15.80
2019-02-21T03:11:44.999Z,16.97
2019-02-21T03:14:15.357Z,16.00
2019-02-21T03:16:45.745Z,17.02
2019-02-21T03:19:16.104Z,16.17
2019-02-21T03:21:46.482Z,15.78
2019-02-21T03:24:16.841Z,16.35
2019-02-21T03:26:47.226Z,16.87
2019-02-21T03:29:17.607Z,16.85
2019-02-21T03:31:54.458Z,17.32
2019-02-21T03:34:20.500Z,16.77
2019-02-21T03:36:50.883Z,16.97
2019-02-21T03:39:21.249Z,18.57
2019-02-21T03:41:51.640Z,18.32
2019-02-21T03:44:22.000Z,18.07
2019-02-21T03:46:52.387Z,19.00
2019-02-21T03:49:22.748Z,19.05
2019-02-21T03:51:53.138Z,20.08
2019-02-21T03:54:23.669Z,20.72
2019-02-21T03:56:54.055Z,21.15
2019-02-21T03:59:24.453Z,22.75
2019-02-21T04:02:04.732Z,20.45
2019-02-21T04:04:28.603Z,21.10
2019-02-21T04:06:58.975Z,21.23
2019-02-21T04:09:29.328Z,21.75
2019-02-21T04:11:59.718Z,22.17
2019-02-21T04:14:30.072Z,22.90
2019-02-21T04:17:00.455Z,22.07
2019-02-21T04:19:30.822Z,23.20
2019-02-21T04:22:01.211Z,24.32
2019-02-21T04:24:31.579Z,24.37
2019-02-21T04:27:01.951Z,24.20
2019-02-21T04:29:34.994Z,25.72
2019-02-21T04:32:16.117Z,26.33
2019-02-21T04:34:37.486Z,26.60
2019-02-21T04:37:07.807Z,25.65
2019-02-21T04:39:38.169Z,25.68
2019-02-21T04:42:08.620Z,25.30
2019-02-21T04:44:38.974Z,26.65
2019-02-21T04:47:09.366Z,26.40
2019-02-21T04:49:39.726Z,26.82
2019-02-21T04:52:10.110Z,25.80
2019-02-21T04:54:40.469Z,26.17
2019-02-21T04:57:10.860Z,26.12
2019-02-21T04:59:41.216Z,27.13
2019-02-21T05:02:11.603Z,26.60
2019-02-21T05:04:41.958Z,27.55
2019-02-21T05:07:12.371Z,26.93
2019-02-21T05:09:42.736Z,26.85
2019-02-21T05:12:13.117Z,26.37
2019-02-21T05:14:43.477Z,27.50
2019-02-21T05:17:13.876Z,27.98
2019-02-21T05:19:44.228Z,27.85
2019-02-21T05:22:14.615Z,27.55
2019-02-21T05:24:44.966Z,28.98
2019-02-21T05:27:17.517Z,29.23
2019-02-21T05:29:48.005Z,30.12
2019-02-21T05:32:20.024Z,30.05
2019-02-21T05:34:55.958Z,30.43
2019-02-21T05:37:30.542Z,28.60
2019-02-21T05:40:11.678Z,29.00
2019-02-21T05:42:43.699Z,31.80
2019-02-21T05:45:18.997Z,31.05
2019-02-21T05:48:01.213Z,29.25
2019-02-21T05:50:33.404Z,29.67
2019-02-21T05:53:08.303Z,28.90
2019-02-21T05:55:40.302Z,30.57
2019-02-21T05:58:12.865Z,28.95
2019-02-21T06:00:57.286Z,29.20
2019-02-21T06:03:35.760Z,29.65
2019-02-21T06:06:06.256Z,29.00
2019-02-21T06:08:38.297Z,30.05
2019-02-21T06:11:10.443Z,31.07
2019-02-21T06:13:54.485Z,30.20
2019-02-21T06:16:41.729Z,29.02
2019-02-21T06:19:13.753Z,31.42
2019-02-21T06:21:45.781Z,29.15
2019-02-21T06:24:29.730Z,30.70
2019-02-21T06:27:01.731Z,29.92
2019-02-21T06:29:34.218Z,30.92
2019-02-21T06:32:13.873Z,28.10
2019-02-21T06:34:36.788Z,29.70
2019-02-21T06:37:07.140Z,28.77
2019-02-21T06:39:38.596Z,27.95
2019-02-21T06:42:08.961Z,28.60
2019-02-21T06:44:39.372Z,28.70
2019-02-21T06:47:09.733Z,30.60
2019-02-21T06:49:40.107Z,29.40
2019-02-21T06:52:10.466Z,29.77
2019-02-21T06:54:40.839Z,27.48
2019-02-21T06:57:11.279Z,27.93
2019-02-21T06:59:45.115Z,27.55
2019-02-21T07:02:13.797Z,28.27
2019-02-21T07:04:44.196Z,26.75
2019-02-21T07:07:14.555Z,26.30
2019-02-21T07:09:44.931Z,28.17
2019-02-21T07:12:15.382Z,26.15
2019-02-21T07:14:45.781Z,25.50
2019-02-21T07:17:16.145Z,26.52
2019-02-21T07:19:46.530Z,26.17
2019-02-21T07:22:17.962Z,26.70
2019-02-21T07:24:50.618Z,25.60
2019-02-21T07:27:21.027Z,25.48
2019-02-21T07:29:51.405Z,25.70
2019-02-21T07:32:21.768Z,26.45
2019-02-21T07:34:52.178Z,27.35
2019-02-21T07:37:22.523Z,27.02
2019-02-21T07:39:52.982Z,26.15
2019-02-21T07:42:23.347Z,26.30
2019-02-21T07:44:54.934Z,25.65
2019-02-21T07:47:25.573Z,26.15
2019-02-21T07:49:56.129Z,26.45
2019-02-21T07:52:26.472Z,25.17
2019-02-21T07:55:01.739Z,26.12
2019-02-21T07:57:28.997Z,24.70
2019-02-21T07:59:59.624Z,25.95
2019-02-21T08:02:29.956Z,26.20
2019-02-21T08:05:02.074Z,28.38
2019-02-21T08:07:32.842Z,26.37
2019-02-21T08:10:03.866Z,26.42
2019-02-21T08:12:34.236Z,28.62
2019-02-21T08:15:05.969Z,27.27
2019-02-21T08:17:36.318Z,27.50
2019-02-21T08:20:11.124Z,28.42
2019-02-21T08:22:41.474Z,28.95
2019-02-21T08:25:12.129Z,28.32
2019-02-21T08:27:42.714Z,30.10
2019-02-21T08:30:15.790Z,28.07
2019-02-21T08:33:02.848Z,28.75
2019-02-21T08:35:34.201Z,30.55
2019-02-21T08:38:04.606Z,28.07
2019-02-21T08:40:34.992Z,28.52
2019-02-21T08:43:05.430Z,30.57
2019-02-21T08:45:35.811Z,30.82
2019-02-21T08:48:06.170Z,29.90
2019-02-21T08:50:36.554Z,29.63
2019-02-21T08:53:06.928Z,30.30
2019-02-21T08:55:37.310Z,29.70
2019-02-21T08:58:07.988Z,31.25
2019-02-21T09:00:38.498Z,32.73
2019-02-21T09:03:08.859Z,30.65
2019-02-21T09:05:39.230Z,32.15
2019-02-21T09:08:09.583Z,30.37
2019-02-21T09:10:39.970Z,29.75
2019-02-21T09:13:10.336Z,28.73
2019-02-21T09:15:40.781Z,30.45
2019-02-21T09:18:11.315Z,29.82
2019-02-21T09:20:41.698Z,31.25
2019-02-21T09:23:12.140Z,30.88
2019-02-21T09:25:42.529Z,31.85
2019-02-21T09:28:15.509Z,29.65
2019-02-21T09:30:44.984Z,29.95
2019-02-21T09:33:17.721Z,30.75
2019-02-21T09:35:47.472Z,33.18
2019-02-21T09:38:17.795Z,31.85
2019-02-21T09:40:48.181Z,30.20
2019-02-21T09:43:18.551Z,31.82
2019-02-21T09:45:48.944Z,30.92
2019-02-21T09:48:19.307Z,29.80
2019-02-21T09:50:49.758Z,29.25
2019-02-21T09:53:20.118Z,28.60
2019-02-21T09:55:50.662Z,27.85
2019-02-21T09:58:21.136Z,26.90
2019-02-21T10:00:51.531Z,27.02
2019-02-21T10:03:21.902Z,28.62
2019-02-21T10:05:52.298Z,27.02
2019-02-21T10:08:22.661Z,25.70
2019-02-21T10:10:53.057Z,25.20
2019-02-21T10:13:23.430Z,24.50
2019-02-21T10:15:53.890Z,24.98
2019-02-21T10:18:24.269Z,24.98
2019-02-21T10:20:54.674Z,23.90
2019-02-21T10:23:44.646Z,23.57
2019-02-21T10:26:15.047Z,23.57
2019-02-21T10:28:45.790Z,23.12
2019-02-21T10:31:16.176Z,23.38
2019-02-21T10:33:47.436Z,21.85
2019-02-21T10:36:17.925Z,22.82
2019-02-21T10:39:07.640Z,22.32
2019-02-21T10:41:38.062Z,21.70
2019-02-21T10:44:08.417Z,21.77
2019-02-21T10:46:38.817Z,22.55
2019-02-21T10:49:09.263Z,21.15
2019-02-21T10:51:39.655Z,20.02
2019-02-21T10:54:10.023Z,20.05
2019-02-21T10:56:40.418Z,19.52
2019-02-21T10:59:10.792Z,19.07
2019-02-21T11:01:41.195Z,18.35
2019-02-21T11:04:11.567Z,16.62
2019-02-21T11:06:41.967Z,16.77
2019-02-21T11:09:19.959Z,16.57
2019-02-21T11:11:50.359Z,16.27
2019-02-21T11:14:20.730Z,15.05
2019-02-21T11:16:51.123Z,16.20
2019-02-21T11:19:21.498Z,14.33
2019-02-21T11:21:51.897Z,14.58
2019-02-21T11:24:22.260Z,14.80
2019-02-21T11:26:52.656Z,14.30
2019-02-21T11:29:24.192Z,14.55
2019-02-21T11:31:54.584Z,14.75
2019-02-21T11:34:24.948Z,15.30
2019-02-21T11:36:55.344Z,15.15
2019-02-21T11:39:25.714Z,15.10
2019-02-21T11:41:56.123Z,15.13
2019-02-21T11:44:26.502Z,15.80
2019-02-21T11:46:56.910Z,14.80
2019-02-21T11:49:27.280Z,15.32
2019-02-21T11:52:09.654Z,14.18
2019-02-21T11:54:30.825Z,15.68
2019-02-21T11:57:01.221Z,15.08
2019-02-21T11:59:31.602Z,14.75
2019-02-21T12:02:02.100Z,13.62
2019-02-21T12:04:32.470Z,14.15
2019-02-21T12:07:02.864Z,13.60
2019-02-21T12:09:33.236Z,14.30
2019-02-21T12:12:03.634Z,13.13
2019-02-21T12:14:34.010Z,13.43
2019-02-21T12:17:04.491Z,12.75
2019-02-21T12:19:34.856Z,13.00
2019-02-21T12:22:05.249Z,13.10
2019-02-21T12:24:35.624Z,13.90
2019-02-21T12:27:06.018Z,13.68
2019-02-21T12:29:37.353Z,13.13
2019-02-21T12:32:07.752Z,12.55
2019-02-21T12:34:38.431Z,12.63
2019-02-21T12:37:08.830Z,12.65
2019-02-21T12:39:39.208Z,12.95
2019-02-21T12:42:09.708Z,13.22
2019-02-21T12:44:40.153Z,13.83
2019-02-21T12:47:11.522Z,13.35
2019-02-21T12:49:41.900Z,13.72
2019-02-21T12:52:12.304Z,13.18
2019-02-21T12:54:42.685Z,13.48
2019-02-21T12:57:13.078Z,13.22
2019-02-21T12:59:43.456Z,12.28
2019-02-21T13:02:13.872Z,12.93
2019-02-21T13:04:44.245Z,13.13
2019-02-21T13:07:14.645Z,12.33
2019-02-21T13:09:45.016Z,13.13
2019-02-21T13:12:15.419Z,13.95
2019-02-21T13:14:45.791Z,12.60
2019-02-21T13:17:16.194Z,12.60
2019-02-21T13:19:46.576Z,12.78
2019-02-21T13:22:16.959Z,10.72
2019-02-21T13:24:47.362Z,9.90
2019-02-21T13:27:17.750Z,9.68
2019-02-21T13:29:48.112Z,9.58
2019-02-21T13:32:18.520Z,8.63
2019-02-21T13:34:48.886Z,8.78
2019-02-21T13:37:28.277Z,7.60
2019-02-21T13:39:51.357Z,8.80
2019-02-21T13:42:21.742Z,8.33
2019-02-21T13:44:53.188Z,8.88
2019-02-21T13:47:23.625Z,7.92
2019-02-21T13:49:53.989Z,7.70
2019-02-21T13:52:24.381Z,7.55
2019-02-21T13:54:54.759Z,8.15
2019-02-21T13:57:25.175Z,7.92
2019-02-21T13:59:55.544Z,7.22
2019-02-21T14:02:25.938Z,8.18
2019-02-21T14:04:58.736Z,8.60
2019-02-21T14:07:28.399Z,8.18
2019-02-21T14:09:58.791Z,9.10
2019-02-21T14:12:29.162Z,8.58
2019-02-21T14:14:59.542Z,9.38
2019-02-21T14:17:30.022Z,9.40
2019-02-21T14:20:00.410Z,8.78
2019-02-21T14:22:30.846Z,8.40
2019-02-21T14:25:01.239Z,9.40
2019-02-21T14:27:31.883Z,9.68
2019-02-21T14:30:02.390Z,9.15
2019-02-21T14:32:32.838Z,9.50
2019-02-21T14:35:03.300Z,9.75
2019-02-21T14:37:33.725Z,10.10
2019-02-21T14:40:04.890Z,10.85
2019-02-21T14:42:35.264Z,10.30
2019-02-21T14:45:12.349Z,11.60
2019-02-21T14:47:42.306Z,11.43
2019-02-21T14:50:13.819Z,11.60
2019-02-21T14:52:44.183Z,11.40
2019-02-21T14:55:36.417Z,11.85
2019-02-21T14:58:06.808Z,12.13
2019-02-21T15:00:37.855Z,11.88
2019-02-21T15:03:08.254Z,12.90
2019-02-21T15:05:38.718Z,12.93
2019-02-21T15:08:09.118Z,12.63
2019-02-21T15:10:39.487Z,11.73
2019-02-21T15:13:09.897Z,11.73
2019-02-21T15:15:40.266Z,12.28
2019-02-21T15:18:11.390Z,12.63
2019-02-21T15:20:43.568Z,12.30
2019-02-21T15:23:15.315Z,11.85
2019-02-21T15:25:45.677Z,12.73
2019-02-21T15:28:16.480Z,11.65
2019-02-21T15:30:46.919Z,13.00
2019-02-21T15:33:17.480Z,12.37
2019-02-21T15:35:47.828Z,13.08
2019-02-21T15:38:20.169Z,12.70
2019-02-21T15:40:50.284Z,13.85
2019-02-21T15:43:20.683Z,13.20
2019-02-21T15:45:51.051Z,13.10
2019-02-21T15:48:21.448Z,12.85
2019-02-21T15:51:11.238Z,14.43
2019-02-21T15:53:41.757Z,13.32
2019-02-21T15:56:12.174Z,13.00
2019-02-21T15:58:42.555Z,14.43
2019-02-21T16:01:14.322Z,13.55
2019-02-21T16:03:44.804Z,13.93
2019-02-21T16:06:15.169Z,13.32
2019-02-21T16:08:45.556Z,13.80
2019-02-21T16:11:15.921Z,13.55
2019-02-21T16:13:46.422Z,13.55
2019-02-21T16:16:17.766Z,13.05
2019-02-21T16:19:04.216Z,13.95
2019-02-21T16:21:37.611Z,13.72
2019-02-21T16:24:08.012Z,14.13
2019-02-21T16:26:38.410Z,13.78
2019-02-21T16:29:08.807Z,13.32
2019-02-21T16:31:39.241Z,13.93
2019-02-21T16:34:09.620Z,14.55
2019-02-21T16:36:40.055Z,14.73
2019-02-21T16:39:10.451Z,14.38
2019-02-21T16:41:40.807Z,15.23
2019-02-21T16:44:11.355Z,14.33
2019-02-21T16:46:41.718Z,14.63
2019-02-21T16:49:12.173Z,14.07
2019-02-21T16:51:42.544Z,15.20
2019-02-21T16:54:12.947Z,14.38
2019-02-21T16:56:43.312Z,14.53
2019-02-21T16:59:13.761Z,14.58
2019-02-21T17:01:44.147Z,14.93
2019-02-21T17:04:14.527Z,14.65
2019-02-21T17:06:44.935Z,14.23
2019-02-21T17:09:15.303Z,15.13
2019-02-21T17:11:45.718Z,14.25
2019-02-21T17:14:16.085Z,15.08
2019-02-21T17:16:46.492Z,14.40
2019-02-21T17:19:16.871Z,16.48
2019-02-21T17:21:47.263Z,14.68
2019-02-21T17:24:17.743Z,13.62
2019-02-21T17:26:48.219Z,14.40
2019-02-21T17:29:18.590Z,14.40
2019-02-21T17:31:48.975Z,13.60
2019-02-21T17:34:19.345Z,13.70
2019-02-21T17:36:49.748Z,13.45
2019-02-21T17:39:20.290Z,13.32
2019-02-21T17:41:50.681Z,14.45
2019-02-21T17:44:21.060Z,13.90
2019-02-21T17:46:51.451Z,14.33
2019-02-21T17:49:21.827Z,13.95
2019-02-21T17:51:53.869Z,14.68
2019-02-21T17:54:25.195Z,13.95
2019-02-21T17:56:56.467Z,16.97
2019-02-21T17:59:26.831Z,16.87
2019-02-21T18:01:57.231Z,16.52
2019-02-21T18:04:27.611Z,18.42
2019-02-21T18:06:58.007Z,21.37
2019-02-21T18:09:28.386Z,21.10
2019-02-21T18:11:58.788Z,24.45
2019-02-21T18:14:29.165Z,23.65
2019-02-21T18:16:59.623Z,25.90
2019-02-21T18:19:30.000Z,27.70
2019-02-21T18:22:00.388Z,27.67
2019-02-21T18:24:30.751Z,29.48
2019-02-21T18:27:01.152Z,28.47
2019-02-21T18:29:32.552Z,30.57
2019-02-21T18:32:04.578Z,32.75
2019-02-21T18:34:34.942Z,34.90
2019-02-21T18:37:05.517Z,33.10
2019-02-21T18:39:36.798Z,34.43
2019-02-21T18:42:07.339Z,35.55
2019-02-21T18:44:37.713Z,38.17
2019-02-21T18:47:08.110Z,36.80
2019-02-21T18:49:38.465Z,37.98
2019-02-21T18:52:08.861Z,37.98
2019-02-21T18:54:40.075Z,38.15
2019-02-21T18:57:12.329Z,39.92
2019-02-21T18:59:42.554Z,38.42
2019-02-21T19:02:12.941Z,39.58
2019-02-21T19:04:43.337Z,40.67
2019-02-21T19:07:13.728Z,42.45
2019-02-21T19:09:44.094Z,42.48
2019-02-21T19:12:14.503Z,43.17
2019-02-21T19:14:44.933Z,40.80
2019-02-21T19:17:15.318Z,46.40
2019-02-21T19:19:45.681Z,46.55
2019-02-21T19:22:16.074Z,49.13
2019-02-21T19:24:46.440Z,46.95
2019-02-21T19:27:16.834Z,47.13
2019-02-21T19:29:47.192Z,49.77
2019-02-21T19:32:17.585Z,47.13
2019-02-21T19:34:47.940Z,49.65
2019-02-21T19:37:18.334Z,50.45
2019-02-21T19:39:48.690Z,51.60
2019-02-21T19:42:19.171Z,52.58
2019-02-21T19:44:49.510Z,51.95
2019-02-21T19:47:20.066Z,51.53
2019-02-21T19:49:50.431Z,52.38
2019-02-21T19:52:20.962Z,50.45
2019-02-21T19:54:51.323Z,53.98
2019-02-21T19:57:21.726Z,51.28
2019-02-21T19:59:52.087Z,52.10
2019-02-21T20:02:22.657Z,53.65
2019-02-21T20:04:53.029Z,53.78
2019-02-21T20:07:23.503Z,57.27
2019-02-21T20:09:53.898Z,54.70
2019-02-21T20:12:24.288Z,57.33
2019-02-21T20:14:54.653Z,59.70
2019-02-21T20:17:25.725Z,59.30
2019-02-21T20:19:56.091Z,59.60
2019-02-21T20:22:26.491Z,58.90
2019-02-21T20:24:56.865Z,58.58
2019-02-21T20:27:27.446Z,62.17
2019-02-21T20:29:57.809Z,62.75
2019-02-21T20:32:28.205Z,63.42
2019-02-21T20:34:58.574Z,63.78
2019-02-21T20:37:30.017Z,62.73
2019-02-21T20:40:00.394Z,65.57
2019-02-21T20:42:31.674Z,62.65
2019-02-21T20:45:02.482Z,66.82
2019-02-21T20:47:33.846Z,68.35
2019-02-21T20:50:05.256Z,67.10
2019-02-21T20:52:35.650Z,66.60
2019-02-21T20:55:08.730Z,65.85
2019-02-21T20:57:39.126Z,66.47
2019-02-21T21:00:14.111Z,67.72
2019-02-21T21:02:45.589Z,68.45
2019-02-21T21:05:16.217Z,71.00
2019-02-21T21:07:46.605Z,72.72
2019-02-21T21:10:18.306Z,69.97
2019-02-21T21:12:48.857Z,70.50
2019-02-21T21:15:19.223Z,71.02
2019-02-21T21:17:49.686Z,71.37
2019-02-21T21:20:20.206Z,71.85
2019-02-21T21:22:52.516Z,70.72
2019-02-21T21:25:24.105Z,68.52
2019-02-21T21:27:54.682Z,71.02
2019-02-21T21:30:25.118Z,70.95
2019-02-21T21:32:55.762Z,69.65
2019-02-21T21:35:26.143Z,70.12
2019-02-21T21:37:56.596Z,71.12
2019-02-21T21:40:28.635Z,69.15
2019-02-21T21:42:59.135Z,69.97
2019-02-21T21:45:29.499Z,71.55
2019-02-21T21:48:03.530Z,67.82
2019-02-21T21:50:33.875Z,68.62
2019-02-21T21:53:07.367Z,69.42
2019-02-21T21:55:37.729Z,66.90
2019-02-21T21:58:08.147Z,67.17
2019-02-21T22:00:38.521Z,66.77
2019-02-21T22:03:08.891Z,64.30
2019-02-21T22:05:39.272Z,64.12
2019-02-21T22:08:09.726Z,65.60
2019-02-21T22:10:40.123Z,67.00
2019-02-21T22:13:10.515Z,62.38
2019-02-21T22:15:40.896Z,63.50
2019-02-21T22:18:13.629Z,62.67
2019-02-21T22:20:44.195Z,63.83
2019-02-21T22:23:14.867Z,64.40
2019-02-21T22:25:45.318Z,62.43
2019-02-21T22:28:15.758Z,63.48
2019-02-21T22:31:05.902Z,63.95
2019-02-21T22:33:36.634Z,63.35
2019-02-21T22:36:07.930Z,61.33
2019-02-21T22:38:38.604Z,59.95
2019-02-21T22:41:09.748Z,59.63
2019-02-21T22:43:41.464Z,61.10
2019-02-21T22:46:12.403Z,60.38
2019-02-21T22:48:47.223Z,62.95
2019-02-21T22:51:16.121Z,62.65
2019-02-21T22:53:47.216Z,63.17
2019-02-21T22:56:17.834Z,59.13
2019-02-21T22:58:48.266Z,56.92
2019-02-21T23:01:26.213Z,59.73
2019-02-21T23:04:08.250Z,55.48
2019-02-21T23:07:06.892Z,53.58
2019-02-21T23:09:37.688Z,54.90
2019-02-21T23:12:08.184Z,50.67
2019-02-21T23:14:38.729Z,51.08
2019-02-21T23:17:09.562Z,51.92
2019-02-21T23:19:39.927Z,48.75
2019-02-21T23:22:10.411Z,48.17
2019-02-21T23:24:40.772Z,48.08
2019-02-21T23:27:11.242Z,47.08
2019-02-21T23:29:42.747Z,44.50
2019-02-21T23:32:13.210Z,44.30
2019-02-21T23:34:44.170Z,43.70
2019-02-21T23:37:14.548Z,42.43
2019-02-21T23:39:45.081Z,43.02
2019-02-21T23:42:16.004Z,39.88
2019-02-21T23:44:46.498Z,40.55
2019-02-21T23:47:16.887Z,39.63
2019-02-21T23:49:47.245Z,38.63
2019-02-21T23:52:17.618Z,36.65
2019-02-21T23:54:47.983Z,32.53
2019-02-21T23:57:19.332Z,31.95
2019-02-21T23:59:49.699Z,32.95
